createdAt,value
2022-08-18T00:03:55.902Z,0.21
2022-08-18T00:08:49.898Z,0.20
2022-08-18T00:13:56.208Z,0.22
2022-08-18T00:19:07.116Z,0.16
2022-08-18T00:24:08.963Z,0.30
2022-08-18T00:29:15.393Z,0.26
2022-08-18T00:34:22.203Z,0.10
2022-08-18T00:39:28.784Z,0.13
2022-08-18T00:44:35.098Z,0.19
2022-08-18T00:49:41.557Z,0.14
2022-08-18T00:54:48.340Z,0.24
2022-08-18T00:59:54.727Z,0.10
2022-08-18T01:05:01.481Z,0.13
2022-08-18T01:10:08.444Z,0.23
2022-08-18T01:15:28.260Z,0.20
2022-08-18T01:20:21.297Z,0.13
2022-08-18T01:25:28.094Z,0.11
2022-08-18T01:30:34.580Z,0.14
2022-08-18T01:35:42.073Z,0.18
2022-08-18T01:41:23.093Z,0.31
2022-08-18T01:45:54.165Z,0.13
2022-08-18T01:51:00.588Z,0.16
2022-08-18T01:56:08.284Z,0.26
2022-08-18T02:01:14.783Z,0.18
2022-08-18T02:06:32.210Z,0.35
2022-08-18T02:11:27.809Z,0.14
2022-08-18T02:16:34.648Z,0.15
2022-08-18T02:21:41.414Z,0.11
2022-08-18T02:31:51.077Z,0.17
2022-08-18T02:36:57.941Z,0.25
2022-08-18T02:42:04.548Z,0.21
2022-08-18T02:47:11.347Z,0.12
2022-08-18T02:52:17.914Z,0.21
2022-08-18T02:57:24.731Z,0.16
2022-08-18T03:02:31.302Z,0.10
2022-08-18T03:07:38.168Z,0.19
2022-08-18T03:12:44.431Z,0.24
2022-08-18T03:17:53.889Z,0.17
2022-08-18T03:23:09.512Z,0.16
2022-08-18T03:28:07.835Z,0.24
2022-08-18T03:33:14.567Z,0.25
2022-08-18T03:38:21.737Z,0.11
2022-08-18T03:43:50.836Z,0.16
2022-08-18T03:48:34.735Z,0.18
2022-08-18T03:53:41.502Z,0.25
2022-08-18T03:58:49.218Z,0.12
2022-08-18T04:09:09.592Z,0.11
2022-08-18T04:14:21.670Z,0.19
2022-08-18T04:19:08.577Z,0.17
2022-08-18T04:24:14.998Z,0.14
2022-08-18T04:29:21.901Z,0.16
2022-08-18T04:34:28.401Z,0.17
2022-08-18T04:39:35.495Z,0.27
2022-08-18T04:44:41.783Z,0.15
2022-08-18T04:49:48.777Z,0.14
2022-08-18T04:54:55.572Z,0.08
2022-08-18T05:00:02.466Z,0.11
2022-08-18T05:05:09.008Z,0.12
2022-08-18T05:10:16.602Z,0.18
2022-08-18T05:15:23.868Z,0.30
2022-08-18T05:20:32.677Z,0.14
2022-08-18T05:25:39.101Z,0.16
2022-08-18T05:30:48.847Z,0.20
2022-08-18T05:36:00.028Z,0.11
2022-08-18T05:40:57.635Z,0.10
2022-08-18T05:46:04.041Z,0.14
2022-08-18T05:51:11.533Z,0.09
2022-08-18T05:56:17.969Z,0.14
2022-08-18T06:01:25.446Z,0.20
2022-08-18T06:06:32.580Z,0.16
2022-08-18T06:11:42.822Z,0.17
2022-08-18T06:16:39.204Z,0.16
2022-08-18T06:21:45.402Z,0.34
2022-08-18T06:26:58.151Z,0.22
2022-08-18T06:31:54.879Z,0.16
2022-08-18T06:37:01.481Z,0.31
2022-08-18T06:42:08.342Z,0.34
2022-08-18T06:47:14.758Z,0.09
2022-08-18T06:52:21.443Z,0.23
2022-08-18T06:57:27.838Z,0.18
2022-08-18T07:02:35.488Z,0.16
2022-08-18T07:07:41.054Z,0.33
2022-08-18T07:12:47.520Z,0.23
2022-08-18T07:17:55.487Z,0.22
2022-08-18T07:23:01.645Z,0.18
2022-08-18T07:28:08.222Z,0.19
2022-08-18T07:33:15.824Z,0.15
2022-08-18T07:38:42.142Z,0.15
2022-08-18T07:43:29.696Z,0.30
2022-08-18T07:48:39.693Z,0.34
2022-08-18T07:53:43.076Z,0.28
2022-08-18T07:58:48.985Z,0.12
2022-08-18T08:03:56.404Z,0.14
2022-08-18T08:09:02.840Z,0.13
2022-08-18T08:14:09.581Z,0.23
2022-08-18T08:19:16.011Z,0.19
2022-08-18T08:24:23.160Z,0.15
2022-08-18T08:29:29.558Z,0.20
2022-08-18T08:34:36.296Z,0.28
2022-08-18T08:39:42.784Z,0.36
2022-08-18T08:44:59.096Z,0.21
2022-08-18T08:50:00.768Z,0.44
2022-08-18T08:55:01.529Z,0.28
2022-08-18T09:00:07.939Z,0.23
2022-08-18T09:05:14.664Z,0.33
2022-08-18T09:10:22.041Z,0.14
2022-08-18T09:15:28.743Z,0.36
2022-08-18T09:20:35.381Z,0.22
2022-08-18T09:25:42.471Z,0.25
2022-08-18T09:30:49.277Z,0.34
2022-08-18T09:35:55.813Z,0.17
2022-08-18T09:41:03.440Z,0.30
2022-08-18T09:46:08.985Z,0.13
2022-08-18T09:51:14.915Z,0.35
2022-08-18T09:56:28.643Z,0.23
2022-08-18T10:01:27.195Z,0.24
2022-08-18T10:06:33.418Z,0.34
2022-08-18T10:11:39.794Z,0.25
2022-08-18T10:17:15.668Z,0.34
2022-08-18T10:21:47.523Z,0.31
2022-08-18T10:26:58.269Z,0.22
2022-08-18T10:31:54.707Z,0.21
2022-08-18T10:37:01.436Z,0.34
2022-08-18T10:42:07.996Z,0.26
2022-08-18T10:47:14.210Z,0.24
2022-08-18T10:52:20.943Z,0.33
2022-08-18T10:57:26.472Z,0.24
2022-08-18T11:02:38.166Z,0.28
2022-08-18T11:07:34.855Z,0.25
2022-08-18T11:12:41.329Z,0.24
2022-08-18T11:17:48.026Z,0.27
2022-08-18T11:22:56.519Z,0.31
2022-08-18T11:28:02.446Z,0.42
2022-08-18T11:33:12.471Z,0.27
2022-08-18T11:38:12.555Z,0.27
2022-08-18T11:43:15.726Z,0.31
2022-08-18T11:48:25.100Z,0.26
2022-08-18T11:53:28.804Z,0.43
2022-08-18T11:58:35.101Z,0.31
2022-08-18T12:03:41.721Z,0.34
2022-08-18T12:08:57.233Z,0.40
2022-08-18T12:13:54.901Z,0.19
2022-08-18T12:19:03.101Z,0.35
2022-08-18T12:24:07.851Z,0.32
2022-08-18T12:29:14.211Z,0.77
2022-08-18T12:34:24.808Z,0.34
2022-08-18T12:39:27.333Z,0.39
2022-08-18T12:44:33.713Z,0.44
2022-08-18T12:49:40.369Z,0.51
2022-08-18T12:54:55.754Z,0.27
2022-08-18T12:59:53.330Z,0.37
2022-08-18T13:04:59.774Z,0.54
2022-08-18T13:10:06.111Z,0.45
2022-08-18T13:15:12.757Z,0.40
2022-08-18T13:20:19.441Z,0.42
2022-08-18T13:25:32.244Z,0.49
2022-08-18T13:30:37.968Z,0.34
2022-08-18T13:35:38.208Z,0.42
2022-08-18T13:40:46.945Z,0.36
2022-08-18T13:45:48.080Z,0.37
2022-08-18T13:50:56.341Z,0.53
2022-08-18T13:56:04.713Z,0.34
2022-08-18T14:01:42.138Z,0.46
2022-08-18T14:06:22.027Z,0.53
2022-08-18T14:11:23.158Z,0.51
2022-08-18T14:16:29.130Z,0.29
2022-08-18T14:21:35.452Z,0.40
2022-08-18T14:26:41.349Z,0.34
2022-08-18T14:31:48.223Z,0.24
2022-08-18T14:36:55.282Z,0.44
2022-08-18T14:42:03.037Z,0.38
2022-08-18T14:47:08.660Z,0.47
2022-08-18T14:52:15.520Z,0.55
2022-08-18T14:57:31.546Z,0.38
2022-08-18T15:02:34.466Z,0.22
2022-08-18T15:07:32.757Z,0.70
2022-08-18T15:12:44.022Z,0.33
2022-08-18T15:22:41.364Z,0.47
2022-08-18T15:27:52.287Z,0.22
2022-08-18T15:33:03.253Z,0.43
2022-08-18T15:53:34.192Z,0.65
2022-08-18T15:58:30.239Z,0.31
2022-08-18T16:03:37.227Z,0.32
2022-08-18T16:08:48.115Z,0.35
2022-08-18T16:24:10.240Z,0.25
2022-08-18T16:29:02.976Z,0.37
2022-08-18T16:34:16.478Z,0.17
2022-08-18T16:39:01.644Z,0.21
2022-08-18T16:44:08.794Z,0.34
2022-08-18T16:49:23.075Z,0.44
2022-08-18T16:54:19.982Z,0.17
2022-08-18T16:59:26.554Z,0.34
2022-08-18T17:04:35.080Z,0.23
2022-08-18T17:09:48.424Z,0.32
2022-08-18T17:15:04.310Z,0.42
2022-08-18T17:25:07.425Z,0.21
2022-08-18T17:29:56.554Z,0.38
2022-08-18T17:35:03.394Z,0.36
2022-08-18T17:40:10.539Z,0.31
2022-08-18T17:45:21.735Z,0.40
2022-08-18T17:50:28.068Z,0.33
2022-08-18T17:55:30.551Z,0.32
2022-08-18T18:00:36.951Z,0.26
2022-08-18T18:05:43.838Z,0.39
2022-08-18T18:11:05.626Z,0.49
2022-08-18T18:15:55.239Z,0.30
2022-08-18T18:20:51.526Z,0.25
2022-08-18T18:25:58.452Z,0.47
2022-08-18T18:31:05.161Z,0.32
2022-08-18T18:36:11.935Z,0.29
2022-08-18T18:41:18.865Z,0.26
2022-08-18T18:46:25.240Z,0.18
2022-08-18T18:51:35.894Z,0.56
2022-08-18T18:56:40.304Z,0.45
2022-08-18T19:01:46.769Z,0.23
2022-08-18T19:06:53.578Z,0.50
2022-08-18T19:11:59.999Z,0.29
2022-08-18T19:17:06.327Z,0.50
2022-08-18T19:22:17.004Z,0.58
2022-08-18T19:27:23.201Z,0.51
2022-08-18T19:32:26.372Z,0.34
2022-08-18T19:37:33.278Z,0.39
2022-08-18T19:42:39.367Z,0.46
2022-08-18T19:47:46.713Z,0.75
2022-08-18T19:52:53.183Z,0.40
2022-08-18T19:57:59.990Z,0.43
2022-08-18T20:03:06.572Z,0.53
2022-08-18T20:08:13.592Z,0.39
2022-08-18T20:13:20.150Z,0.34
2022-08-18T20:18:27.185Z,0.64
2022-08-18T20:23:34.222Z,0.44
2022-08-18T20:28:41.590Z,0.28
2022-08-18T20:33:48.054Z,0.64
2022-08-18T20:38:54.821Z,0.61
2022-08-18T20:44:01.226Z,0.39
2022-08-18T20:49:08.254Z,0.60
2022-08-18T20:54:14.726Z,0.54
2022-08-18T20:59:22.199Z,0.38
2022-08-18T21:04:28.696Z,0.53
2022-08-18T21:09:38.984Z,0.46
2022-08-18T21:14:35.347Z,0.59
2022-08-18T21:19:42.056Z,0.74
2022-08-18T21:24:48.454Z,0.33
2022-08-18T21:29:55.183Z,0.49
2022-08-18T21:35:01.613Z,0.42
2022-08-18T21:40:08.331Z,0.35
2022-08-18T21:45:14.724Z,0.38
2022-08-18T21:50:21.998Z,0.63
2022-08-18T21:55:28.328Z,0.29
2022-08-18T22:00:35.082Z,0.68
2022-08-18T22:05:58.962Z,0.44
2022-08-18T22:10:49.204Z,0.54
2022-08-18T22:15:55.616Z,0.56
2022-08-18T22:21:03.078Z,0.54
2022-08-18T22:26:09.522Z,0.57
2022-08-18T22:31:20.489Z,0.70
2022-08-18T22:36:22.209Z,0.53
2022-08-18T22:41:29.163Z,0.69
2022-08-18T22:46:35.040Z,0.52
2022-08-18T22:51:41.788Z,0.81
2022-08-18T22:56:54.997Z,0.51
2022-08-18T23:01:56.336Z,0.54
2022-08-18T23:07:02.786Z,0.41
2022-08-18T23:12:10.197Z,0.82
2022-08-18T23:17:16.588Z,0.62
2022-08-18T23:22:23.237Z,0.78
2022-08-18T23:27:29.660Z,0.68
2022-08-18T23:32:35.838Z,0.55
2022-08-18T23:37:42.200Z,0.84
2022-08-18T23:42:49.009Z,0.74
2022-08-18T23:47:57.604Z,0.53
2022-08-18T23:53:01.622Z,0.50
2022-08-18T23:58:08.055Z,0.59
